Time;durP1;ratioP1;P1;durP2;ratioP2;P2;SDS_P1;SDS_P2;PMS_P1;PMS_P2;Temp;Humidity;BMP_temperature;BMP_pressure;BME280_temperature;BME280_humidity;BME280_pressure;Samples;Min_cycle;Max_cycle;Signal;HPM_P1;HPM_P2
2023/07/31 00:01:56;;;;;;;5.93;2.92;;;;;;;;;;5096248;28;19934;-78
2023/07/31 00:04:22;;;;;;;;;;;;;;;;;;5097083;28;20124;-78
2023/07/31 00:06:48;;;;;;;5.63;2.72;;;;;;;;;;5084544;28;20369;-79
2023/07/31 00:09:14;;;;;;;;;;;;;;;;;;5076647;28;20062;-78
2023/07/31 00:11:40;;;;;;;9.27;3.58;;;;;;;;;;5075695;28;19920;-78
2023/07/31 00:14:06;;;;;;;;;;;;;;;;;;5078190;28;20051;-78
2023/07/31 00:16:32;;;;;;;6.63;2.67;;;;;;;;;;5091902;28;20360;-78
2023/07/31 00:18:58;;;;;;;8.27;3.03;;;;;;;;;;5083451;28;20090;-78
2023/07/31 00:21:24;;;;;;;;;;;;;;;;;;5071648;28;20049;-78
2023/07/31 00:23:50;;;;;;;6.47;2.85;;;;;;;;;;5089509;28;20265;-78
2023/07/31 00:26:16;;;;;;;;;;;;;;;;;;5090184;28;20426;-78
2023/07/31 00:28:42;;;;;;;6.40;3.03;;;;;;;;;;5090802;28;20495;-77
2023/07/31 00:31:08;;;;;;;9.52;3.38;;;;;;;;;;5090338;28;20293;-77
2023/07/31 00:33:34;;;;;;;;;;;;;;;;;;5073997;28;20048;-77
2023/07/31 00:36:00;;;;;;;5.70;2.50;;;;;;;;;;5088213;28;20414;-76
2023/07/31 00:38:26;;;;;;;;;;;;;;;;;;5091217;28;20044;-76
2023/07/31 00:40:52;;;;;;;7.03;2.70;;;;;;;;;;5085736;28;19927;-77
2023/07/31 00:43:18;;;;;;;;;;;;;;;;;;5057611;28;20044;-76
2023/07/31 00:45:44;;;;;;;5.15;2.75;;;;;;;;;;5070044;28;20365;-76
2023/07/31 00:48:11;;;;;;;8.32;2.70;;;;;;;;;;5088355;28;20127;-77
2023/07/31 00:50:37;;;;;;;6.78;2.67;;;;;;;;;;5072515;28;20492;-76
2023/07/31 00:53:03;;;;;;;;;;;;;;;;;;5090140;28;20190;-76
2023/07/31 00:55:29;;;;;;;5.05;2.58;;;;;;;;;;5089610;28;20412;-76
2023/07/31 00:57:56;;;;;;;6.03;2.55;;;;;;;;;;5073096;28;20063;-77
2023/07/31 01:00:22;;;;;;;12.57;3.20;;;;;;;;;;5085878;28;20523;-80
2023/07/31 01:02:48;;;;;;;;;;;;;;;;;;5072486;28;20504;-77
2023/07/31 01:05:14;;;;;;;10.88;3.40;;;;;;;;;;5072123;28;19990;-78
2023/07/31 01:07:40;;;;;;;;;;;;;;;;;;5071530;28;20040;-78
2023/07/31 01:10:33;;;;;;;9.82;3.13;;;;;;;;;;5077357;28;19973;-79
2023/07/31 01:12:59;;;;;;;7.57;3.22;;;;;;;;;;5083103;28;20079;-76
2023/07/31 01:15:26;;;;;;;7.68;2.80;;;;;;;;;;5070415;28;20095;-77
2023/07/31 01:17:51;;;;;;;;;;;;;;;;;;5071810;28;20459;-81
2023/07/31 01:20:19;;;;;;;7.60;2.50;;;;;;;;;;5072990;28;19970;-77
2023/07/31 01:23:03;;;;;;;12.00;2.70;;;;;;;;;;5080251;28;20078;-77
2023/07/31 01:25:53;;;;;;;9.30;2.40;;;;;;;;;;5070029;28;20048;-76
2023/07/31 01:28:26;;;;;;;7.68;2.45;;;;;;;;;;5081596;28;20102;-76
2023/07/31 01:30:52;;;;;;;4.93;2.25;;;;;;;;;;5086160;28;20044;-79
2023/07/31 01:33:18;;;;;;;8.95;2.25;;;;;;;;;;5081667;28;20062;-76
2023/07/31 01:35:46;;;;;;;5.88;2.40;;;;;;;;;;5074716;28;20109;-79
2023/07/31 01:38:12;;;;;;;4.20;2.10;;;;;;;;;;5081138;28;20051;-76
2023/07/31 01:40:38;;;;;;;;;;;;;;;;;;5090861;28;20067;-77
2023/07/31 01:43:04;;;;;;;5.82;2.30;;;;;;;;;;5078306;28;20289;-75
2023/07/31 01:45:30;;;;;;;;;;;;;;;;;;5089628;28;20055;-77
2023/07/31 01:47:56;;;;;;;6.60;3.08;;;;;;;;;;5085989;28;19924;-83
2023/07/31 01:50:22;;;;;;;6.40;2.90;;;;;;;;;;5090368;28;20123;-77
2023/07/31 01:52:48;;;;;;;7.22;2.75;;;;;;;;;;5073929;28;20157;-77
2023/07/31 01:55:14;;;;;;;4.43;2.50;;;;;;;;;;5079331;28;20068;-79
2023/07/31 01:57:40;;;;;;;;;;;;;;;;;;5070456;28;20080;-76
2023/07/31 02:00:06;;;;;;;5.75;2.78;;;;;;;;;;5071758;28;19927;-77
2023/07/31 02:02:32;;;;;;;5.85;2.67;;;;;;;;;;5095448;28;20043;-76
2023/07/31 02:04:58;;;;;;;6.90;2.40;;;;;;;;;;5095127;28;20094;-79
2023/07/31 02:07:24;;;;;;;;;;;;;;;;;;5095755;28;20052;-77
2023/07/31 02:09:50;;;;;;;7.07;2.20;;;;;;;;;;5087233;28;20420;-77
2023/07/31 02:12:16;;;;;;;4.78;2.40;;;;;;;;;;5074416;28;20044;-77
2023/07/31 02:14:43;;;;;;;4.75;2.17;;;;;;;;;;5093605;28;20052;-77
2023/07/31 02:17:09;;;;;;;;;;;;;;;;;;5094624;28;20052;-77
2023/07/31 02:19:35;;;;;;;3.70;2.08;;;;;;;;;;5078425;28;19926;-77
2023/07/31 02:22:01;;;;;;;6.93;2.15;;;;;;;;;;5066377;28;20048;-78
2023/07/31 02:24:27;;;;;;;4.78;2.40;;;;;;;;;;5078398;28;20066;-79
2023/07/31 02:26:53;;;;;;;;;;;;;;;;;;5078396;28;20090;-78
2023/07/31 02:29:19;;;;;;;6.03;2.10;;;;;;;;;;5078065;28;19955;-78
2023/07/31 02:31:45;;;;;;;6.15;2.08;;;;;;;;;;5078010;28;20052;-77
2023/07/31 02:34:11;;;;;;;;;;;;;;;;;;5061705;28;20551;-77
2023/07/31 02:36:37;;;;;;;3.83;1.92;;;;;;;;;;5078356;28;20003;-77
2023/07/31 02:39:03;;;;;;;;;;;;;;;;;;5081228;28;20416;-78
2023/07/31 02:41:29;;;;;;;6.85;2.28;;;;;;;;;;5079684;28;19968;-78
2023/07/31 02:43:55;;;;;;;5.97;2.30;;;;;;;;;;5097290;28;20040;-80
2023/07/31 02:46:24;;;;;;;6.22;2.45;;;;;;;;;;5097624;28;20142;-79
2023/07/31 02:48:51;;;;;;;5.32;2.47;;;;;;;;;;5098127;28;20051;-77
2023/07/31 02:51:17;;;;;;;4.68;2.42;;;;;;;;;;5097786;28;20044;-77
2023/07/31 02:53:43;;;;;;;;;;;;;;;;;;5098210;28;20044;-76
2023/07/31 02:56:09;;;;;;;7.45;2.90;;;;;;;;;;5097177;28;19927;-77
2023/07/31 02:58:35;;;;;;;;;;;;;;;;;;5081249;28;20043;-78
2023/07/31 03:01:02;;;;;;;6.50;3.08;;;;;;;;;;5095358;28;19930;-78
2023/07/31 03:03:28;;;;;;;8.07;3.03;;;;;;;;;;5080258;28;20096;-76
2023/07/31 03:05:54;;;;;;;7.80;2.85;;;;;;;;;;5097745;28;20051;-76
2023/07/31 03:08:20;;;;;;;6.47;3.20;;;;;;;;;;5080828;28;20043;-76
2023/07/31 03:10:47;;;;;;;7.40;3.20;;;;;;;;;;5080335;28;20141;-76
2023/07/31 03:13:12;;;;;;;;;;;;;;;;;;5096384;28;20047;-76
2023/07/31 03:15:39;;;;;;;8.35;3.50;;;;;;;;;;5080735;28;19926;-78
2023/07/31 03:18:04;;;;;;;;;;;;;;;;;;5079965;28;20434;-82
2023/07/31 03:20:31;;;;;;;8.57;3.40;;;;;;;;;;5097492;28;19920;-76
2023/07/31 03:22:57;;;;;;;;;;;;;;;;;;5069311;28;20105;-77
2023/07/31 03:25:23;;;;;;;6.35;3.30;;;;;;;;;;5059464;28;19920;-77
2023/07/31 03:27:49;;;;;;;5.95;3.00;;;;;;;;;;5075988;28;20050;-78
2023/07/31 03:30:15;;;;;;;;;;;;;;;;;;5074666;28;20086;-78
2023/07/31 03:32:41;;;;;;;5.13;2.28;;;;;;;;;;5079527;28;19959;-77
2023/07/31 03:35:07;;;;;;;;;;;;;;;;;;5080236;28;20092;-77
2023/07/31 03:37:33;;;;;;;5.25;2.60;;;;;;;;;;5080120;28;19920;-78
2023/07/31 03:39:59;;;;;;;;;;;;;;;;;;5097210;28;20040;-78
2023/07/31 03:42:25;;;;;;;5.93;2.47;;;;;;;;;;5089395;28;19916;-78
2023/07/31 03:44:51;;;;;;;;;;;;;;;;;;5077316;28;20362;-77
2023/07/31 03:47:17;;;;;;;5.00;2.15;;;;;;;;;;5076328;28;19927;-77
2023/07/31 03:49:42;;;;;;;;;;;;;;;;;;5077160;28;20131;-77
2023/07/31 03:52:09;;;;;;;3.58;1.95;;;;;;;;;;5076186;28;20467;-78
2023/07/31 03:54:35;;;;;;;;;;;;;;;;;;5060597;28;20374;-77
2023/07/31 03:57:01;;;;;;;4.63;2.10;;;;;;;;;;5076160;28;19927;-77
2023/07/31 03:59:27;;;;;;;;;;;;;;;;;;5077009;28;20663;-77
2023/07/31 04:01:53;;;;;;;4.65;1.90;;;;;;;;;;5076117;28;20007;-77
2023/07/31 04:04:19;;;;;;;5.00;2.10;;;;;;;;;;5059129;28;20055;-77
2023/07/31 04:06:45;;;;;;;;;;;;;;;;;;5076700;28;20036;-77
2023/07/31 04:09:11;;;;;;;4.35;1.85;;;;;;;;;;5059186;28;19920;-78
2023/07/31 04:11:37;;;;;;;3.72;1.75;;;;;;;;;;5075825;28;20138;-78
2023/07/31 04:14:03;;;;;;;;;;;;;;;;;;5076410;28;20052;-78
2023/07/31 04:16:29;;;;;;;4.97;1.77;;;;;;;;;;5059213;28;20462;-78
2023/07/31 04:18:55;;;;;;;;;;;;;;;;;;5086126;28;20112;-78
2023/07/31 04:21:21;;;;;;;4.15;2.10;;;;;;;;;;5096028;28;19919;-80
2023/07/31 04:23:47;;;;;;;;;;;;;;;;;;5079960;28;20043;-79
2023/07/31 04:26:13;;;;;;;4.47;1.75;;;;;;;;;;5075857;28;19927;-78
2023/07/31 04:28:39;;;;;;;;;;;;;;;;;;5075731;28;20100;-79
2023/07/31 04:31:05;;;;;;;6.43;1.85;;;;;;;;;;5079259;28;20338;-78
2023/07/31 04:33:31;;;;;;;;;;;;;;;;;;5095339;28;20100;-78
2023/07/31 04:35:57;;;;;;;18.88;2.28;;;;;;;;;;5094890;28;20013;-77
2023/07/31 04:38:23;;;;;;;;;;;;;;;;;;5095340;28;20412;-76
2023/07/31 04:40:49;;;;;;;5.90;1.83;;;;;;;;;;5093492;28;19920;-76
2023/07/31 04:43:15;;;;;;;14.27;2.22;;;;;;;;;;5094187;28;20063;-76
2023/07/31 04:45:43;;;;;;;7.60;2.47;;;;;;;;;;5094137;28;20047;-76
2023/07/31 04:48:09;;;;;;;14.48;2.50;;;;;;;;;;5093744;28;20460;-75
2023/07/31 04:50:35;;;;;;;23.42;3.10;;;;;;;;;;5093349;28;20078;-75
2023/07/31 04:53:01;;;;;;;;;;;;;;;;;;5074109;28;20040;-77
2023/07/31 04:55:27;;;;;;;21.52;3.50;;;;;;;;;;5090409;28;20353;-77
2023/07/31 04:57:53;;;;;;;;;;;;;;;;;;5073606;28;20370;-76
2023/07/31 05:00:19;;;;;;;17.92;4.05;;;;;;;;;;5079646;28;19953;-76
2023/07/31 05:02:45;;;;;;;;;;;;;;;;;;5069731;28;20392;-76
2023/07/31 05:05:11;;;;;;;22.50;6.20;;;;;;;;;;5079039;28;20002;-79
2023/07/31 05:07:37;;;;;;;25.92;8.02;;;;;;;;;;5065391;28;20127;-75
2023/07/31 05:10:03;;;;;;;;;;;;;;;;;;5080667;28;20040;-77
2023/07/31 05:12:29;;;;;;;25.50;7.97;;;;;;;;;;5070929;28;19927;-76
2023/07/31 05:14:55;;;;;;;32.80;9.10;;;;;;;;;;5069103;28;20092;-76
2023/07/31 05:17:21;;;;;;;;;;;;;;;;;;5076406;28;20051;-76
2023/07/31 05:19:47;;;;;;;27.88;8.75;;;;;;;;;;5087149;28;19926;-77
2023/07/31 05:22:13;;;;;;;;;;;;;;;;;;5056349;28;20055;-79
2023/07/31 05:24:39;;;;;;;28.00;8.45;;;;;;;;;;5072227;28;19920;-76
2023/07/31 05:27:05;;;;;;;;;;;;;;;;;;5055613;28;20083;-76
2023/07/31 05:29:31;;;;;;;31.83;9.32;;;;;;;;;;5075918;28;19959;-77
2023/07/31 05:31:57;;;;;;;;;;;;;;;;;;5093673;28;20048;-76
2023/07/31 05:34:23;;;;;;;39.33;10.02;;;;;;;;;;5075787;28;19926;-77
2023/07/31 05:36:49;;;;;;;38.67;9.63;;;;;;;;;;5082755;28;20044;-77
2023/07/31 05:39:15;;;;;;;;;;;;;;;;;;5087811;28;20115;-80
2023/07/31 05:41:41;;;;;;;37.30;9.88;;;;;;;;;;5082857;28;20357;-77
2023/07/31 05:44:07;;;;;;;;;;;;;;;;;;5073635;28;20052;-76
2023/07/31 05:46:33;;;;;;;40.80;11.25;;;;;;;;;;5081625;28;20383;-77
2023/07/31 05:49:00;;;;;;;;;;;;;;;;;;5093409;28;20101;-77
2023/07/31 05:51:27;;;;;;;45.42;11.65;;;;;;;;;;5092289;28;20288;-77
2023/07/31 05:53:53;;;;;;;37.75;10.63;;;;;;;;;;5075627;28;20039;-78
2023/07/31 05:56:19;;;;;;;38.22;11.40;;;;;;;;;;5069291;28;20059;-78
2023/07/31 05:58:45;;;;;;;;;;;;;;;;;;5073227;28;20058;-77
2023/07/31 06:01:11;;;;;;;44.80;12.05;;;;;;;;;;5064540;28;19919;-77
2023/07/31 06:03:37;;;;;;;;;;;;;;;;;;5072971;28;20044;-78
2023/07/31 06:06:03;;;;;;;40.33;12.45;;;;;;;;;;5072438;28;19920;-78
2023/07/31 06:08:29;;;;;;;;;;;;;;;;;;5072192;28;20558;-78
2023/07/31 06:10:55;;;;;;;44.50;12.80;;;;;;;;;;5076992;28;19938;-78
2023/07/31 06:13:21;;;;;;;;;;;;;;;;;;5092315;28;20475;-78
2023/07/31 06:15:47;;;;;;;43.80;13.20;;;;;;;;;;5093182;28;19963;-78
2023/07/31 06:18:13;;;;;;;;;;;;;;;;;;5080943;28;20099;-79
2023/07/31 06:20:40;;;;;;;45.50;13.15;;;;;;;;;;5074343;28;19967;-78
2023/07/31 06:23:06;;;;;;;48.67;14.55;;;;;;;;;;5093101;28;20110;-78
2023/07/31 06:25:32;;;;;;;43.97;13.80;;;;;;;;;;5057928;28;20840;-78
2023/07/31 06:27:58;;;;;;;42.00;13.73;;;;;;;;;;5060913;28;20542;-79
2023/07/31 06:30:24;;;;;;;;;;;;;;;;;;5039935;28;20489;-79
2023/07/31 06:32:50;;;;;;;36.65;11.98;;;;;;;;;;5072368;28;19924;-79
2023/07/31 06:35:16;;;;;;;;;;;;;;;;;;5056679;28;20044;-77
2023/07/31 06:37:44;;;;;;;40.42;13.18;;;;;;;;;;5055670;28;19969;-79
2023/07/31 06:40:10;;;;;;;35.03;12.68;;;;;;;;;;5077673;28;20397;-79
2023/07/31 06:42:36;;;;;;;33.72;12.27;;;;;;;;;;5054431;28;20134;-80
2023/07/31 06:45:03;;;;;;;35.78;11.23;;;;;;;;;;5074924;28;20071;-79
2023/07/31 06:47:29;;;;;;;32.88;12.35;;;;;;;;;;5073645;28;20046;-79
2023/07/31 06:49:55;;;;;;;;;;;;;;;;;;5076778;28;20036;-80
2023/07/31 06:52:21;;;;;;;37.63;11.63;;;;;;;;;;5074908;28;20006;-82
2023/07/31 06:54:47;;;;;;;;;;;;;;;;;;5066189;28;20044;-79
2023/07/31 06:57:13;;;;;;;34.90;10.40;;;;;;;;;;5087238;28;20392;-78
2023/07/31 06:59:39;;;;;;;44.83;12.80;;;;;;;;;;5058953;28;20051;-73
2023/07/31 07:02:05;;;;;;;;;;;;;;;;;;5092836;28;20051;-73
2023/07/31 07:04:31;;;;;;;36.90;10.98;;;;;;;;;;5078006;28;20009;-74
2023/07/31 07:06:57;;;;;;;;;;;;;;;;;;5075223;28;20345;-76
2023/07/31 07:09:23;;;;;;;32.78;9.75;;;;;;;;;;5074996;28;20361;-77
2023/07/31 07:11:49;;;;;;;;;;;;;;;;;;5057756;28;20133;-74
2023/07/31 07:14:15;;;;;;;40.60;11.15;;;;;;;;;;5075472;28;19924;-73
2023/07/31 07:16:41;;;;;;;31.30;9.93;;;;;;;;;;5041405;28;20120;-72
2023/07/31 07:19:07;;;;;;;;;;;;;;;;;;5076774;28;20055;-77
2023/07/31 07:21:33;;;;;;;25.95;9.15;;;;;;;;;;5087191;28;20266;-77
2023/07/31 07:23:59;;;;;;;;;;;;;;;;;;5096934;28;20052;-78
2023/07/31 07:26:25;;;;;;;22.73;7.90;;;;;;;;;;5061737;28;19923;-80
2023/07/31 07:28:51;;;;;;;;;;;;;;;;;;5069114;28;20373;-74
2023/07/31 07:31:17;;;;;;;24.15;8.23;;;;;;;;;;5082061;28;19931;-72
2023/07/31 07:33:43;;;;;;;28.83;9.40;;;;;;;;;;5073921;28;20051;-74
2023/07/31 07:36:09;;;;;;;;;;;;;;;;;;5075055;28;20040;-78
2023/07/31 07:38:36;;;;;;;28.63;8.50;;;;;;;;;;5074649;28;19924;-77
2023/07/31 07:41:02;;;;;;;26.00;9.05;;;;;;;;;;5059729;28;20075;-77
2023/07/31 07:43:28;;;;;;;;;;;;;;;;;;5095216;28;20063;-77
2023/07/31 07:45:54;;;;;;;22.95;8.43;;;;;;;;;;5089073;28;20040;-77
2023/07/31 07:48:20;;;;;;;;;;;;;;;;;;5078953;28;20123;-78
2023/07/31 07:50:46;;;;;;;20.55;8.35;;;;;;;;;;5088700;28;19971;-79
2023/07/31 07:53:12;;;;;;;21.95;7.70;;;;;;;;;;5074632;28;20040;-78
2023/07/31 07:55:38;;;;;;;;;;;;;;;;;;5079534;28;20055;-78
2023/07/31 07:58:04;;;;;;;19.42;7.47;;;;;;;;;;5079834;28;20018;-79
2023/07/31 08:00:30;;;;;;;;;;;;;;;;;;5067220;28;20083;-78
2023/07/31 08:02:58;;;;;;;18.27;7.13;;;;;;;;;;5067667;28;19919;-80
2023/07/31 08:05:24;;;;;;;13.43;6.20;;;;;;;;;;5075531;28;20060;-77
2023/07/31 08:07:50;;;;;;;13.82;6.22;;;;;;;;;;5075213;28;20044;-77
2023/07/31 08:10:16;;;;;;;;;;;;;;;;;;5075239;28;20048;-83
2023/07/31 08:12:42;;;;;;;16.70;6.25;;;;;;;;;;5071744;28;19927;-79
2023/07/31 08:15:08;;;;;;;;;;;;;;;;;;5071214;28;20051;-78
2023/07/31 08:17:34;;;;;;;13.80;6.10;;;;;;;;;;5059798;28;19930;-77
2023/07/31 08:20:00;;;;;;;;;;;;;;;;;;5075253;28;20106;-77
2023/07/31 08:22:26;;;;;;;12.68;6.00;;;;;;;;;;5078876;28;19927;-78
2023/07/31 08:24:52;;;;;;;;;;;;;;;;;;5058843;28;20116;-77
2023/07/31 08:27:18;;;;;;;16.60;6.65;;;;;;;;;;5092570;28;19923;-78
2023/07/31 08:29:44;;;;;;;;;;;;;;;;;;5067452;28;20052;-78
2023/07/31 08:32:10;;;;;;;14.68;5.60;;;;;;;;;;5074546;28;19927;-72
2023/07/31 08:34:36;;;;;;;;;;;;;;;;;;5078543;28;20411;-74
2023/07/31 08:37:02;;;;;;;13.73;5.85;;;;;;;;;;5086326;28;19927;-72
2023/07/31 08:39:28;;;;;;;;;;;;;;;;;;5097873;28;20052;-73
2023/07/31 08:41:59;;;;;;;13.23;5.07;;;;;;;;;;5079951;28;19924;-74
2023/07/31 08:44:25;;;;;;;12.90;4.97;;;;;;;;;;5074690;28;20408;-78
2023/07/31 08:46:52;;;;;;;;;;;;;;;;;;5075592;28;20128;-77
2023/07/31 08:49:19;;;;;;;12.20;4.60;;;;;;;;;;5094720;28;19920;-76
2023/07/31 08:51:47;;;;;;;9.18;4.15;;;;;;;;;;5089181;28;20052;-78
2023/07/31 08:54:13;;;;;;;7.90;4.30;;;;;;;;;;5064321;28;20149;-79
2023/07/31 08:56:39;;;;;;;;;;;;;;;;;;5064049;28;20052;-78
2023/07/31 08:59:05;;;;;;;8.27;3.92;;;;;;;;;;5079210;28;19931;-76
2023/07/31 09:01:36;;;;;;;9.88;3.50;;;;;;;;;;5060289;28;20043;-77
2023/07/31 09:04:02;;;;;;;11.32;3.90;;;;;;;;;;5086664;28;20051;-78
2023/07/31 09:06:29;;;;;;;11.93;4.78;;;;;;;;;;5068380;28;20051;-78
2023/07/31 09:08:55;;;;;;;12.93;4.70;;;;;;;;;;5080857;28;20040;-78
2023/07/31 09:11:22;;;;;;;;;;;;;;;;;;5089587;28;20485;-78
2023/07/31 09:13:49;;;;;;;8.85;3.95;;;;;;;;;;5088913;28;19985;-78
2023/07/31 09:16:15;;;;;;;8.48;3.58;;;;;;;;;;5087452;28;20036;-78
2023/07/31 09:18:41;;;;;;;;;;;;;;;;;;5075026;28;20052;-79
2023/07/31 09:21:07;;;;;;;8.45;3.55;;;;;;;;;;5074759;28;19920;-79
2023/07/31 09:23:43;;;;;;;7.93;3.33;;;;;;;;;;5078370;28;20055;-78
2023/07/31 09:26:10;;;;;;;9.75;3.35;;;;;;;;;;5082808;28;20031;-80
2023/07/31 09:28:36;;;;;;;5.00;2.72;;;;;;;;;;5085038;28;20113;-84
2023/07/31 09:31:02;;;;;;;6.55;3.03;;;;;;;;;;5077187;28;20043;-77
2023/07/31 09:33:28;;;;;;;;;;;;;;;;;;5085026;28;20075;-77
2023/07/31 09:35:54;;;;;;;6.18;2.33;;;;;;;;;;5092846;28;19982;-78
2023/07/31 09:38:20;;;;;;;;;;;;;;;;;;5094069;28;20553;-77
2023/07/31 09:40:50;;;;;;;5.22;2.65;;;;;;;;;;5086252;28;19923;-76
2023/07/31 09:43:20;;;;;;;7.68;2.80;;;;;;;;;;5072553;28;20500;-76
2023/07/31 09:45:46;;;;;;;5.05;2.40;;;;;;;;;;5076070;28;20043;-76
2023/07/31 09:48:17;;;;;;;5.72;2.20;;;;;;;;;;5093335;28;20036;-78
2023/07/31 09:50:44;;;;;;;5.78;2.40;;;;;;;;;;5089419;28;20043;-79
2023/07/31 09:53:10;;;;;;;5.38;2.42;;;;;;;;;;5065043;28;20082;-76
2023/07/31 09:55:37;;;;;;;3.13;1.92;;;;;;;;;;5054986;28;20613;-82
2023/07/31 09:58:04;;;;;;;4.13;1.95;;;;;;;;;;5081754;28;20036;-78
2023/07/31 10:00:30;;;;;;;5.57;2.10;;;;;;;;;;5088197;28;20130;-76
2023/07/31 10:02:58;;;;;;;2.92;1.90;;;;;;;;;;5083906;28;20044;-78
2023/07/31 10:05:27;;;;;;;4.60;2.30;;;;;;;;;;5065787;28;20051;-77
2023/07/31 10:07:57;;;;;;;4.55;2.40;;;;;;;;;;5083723;28;20396;-76
2023/07/31 10:10:24;;;;;;;4.00;2.45;;;;;;;;;;5080401;28;20152;-76
2023/07/31 10:12:50;;;;;;;3.92;2.28;;;;;;;;;;5082941;28;20476;-77
2023/07/31 10:15:16;;;;;;;5.18;2.60;;;;;;;;;;5066242;28;20043;-76
2023/07/31 10:17:43;;;;;;;3.33;2.42;;;;;;;;;;5065194;28;20129;-78
2023/07/31 10:20:09;;;;;;;5.20;2.60;;;;;;;;;;5066520;28;20127;-77
2023/07/31 10:22:35;;;;;;;5.35;2.72;;;;;;;;;;5073511;28;20040;-80
2023/07/31 10:25:02;;;;;;;5.95;2.80;;;;;;;;;;5081536;28;20032;-79
2023/07/31 10:27:27;;;;;;;;;;;;;;;;;;5089832;28;20055;-77
2023/07/31 10:29:55;;;;;;;6.07;3.38;;;;;;;;;;5096160;28;19926;-78
2023/07/31 10:32:22;;;;;;;5.15;3.20;;;;;;;;;;5096378;28;20075;-78
2023/07/31 10:34:49;;;;;;;7.00;3.10;;;;;;;;;;5081124;28;20044;-76
2023/07/31 10:37:26;;;;;;;5.57;3.00;;;;;;;;;;5078914;28;20047;-76
2023/07/31 10:40:00;;;;;;;6.10;3.45;;;;;;;;;;5058920;28;20454;-77
2023/07/31 10:42:30;;;;;;;5.55;3.10;;;;;;;;;;5074923;28;20056;-76
2023/07/31 10:44:58;;;;;;;5.93;3.10;;;;;;;;;;5083638;28;20047;-77
2023/07/31 10:47:24;;;;;;;4.13;2.45;;;;;;;;;;5075692;28;20044;-76
2023/07/31 10:49:50;;;;;;;;;;;;;;;;;;5083264;28;20047;-76
2023/07/31 10:52:23;;;;;;;4.15;2.42;;;;;;;;;;5078764;28;19927;-76
2023/07/31 10:54:50;;;;;;;7.20;3.15;;;;;;;;;;5077682;28;20123;-77
2023/07/31 10:57:20;;;;;;;6.05;3.00;;;;;;;;;;5077165;28;20074;-76
2023/07/31 10:59:46;;;;;;;3.78;2.40;;;;;;;;;;5084355;28;20552;-76
2023/07/31 11:02:12;;;;;;;;;;;;;;;;;;5085493;28;20101;-76
2023/07/31 11:04:42;;;;;;;3.65;2.63;;;;;;;;;;5081013;28;20311;-77
2023/07/31 11:07:10;;;;;;;5.50;3.03;;;;;;;;;;5074440;28;20044;-78
2023/07/31 11:09:36;;;;;;;4.35;2.78;;;;;;;;;;5079120;28;20523;-77
2023/07/31 11:12:02;;;;;;;;;;;;;;;;;;5076997;28;20047;-77
2023/07/31 11:14:28;;;;;;;4.18;2.78;;;;;;;;;;5095344;28;19920;-76
2023/07/31 11:16:54;;;;;;;;;;;;;;;;;;5079841;28;20520;-78
2023/07/31 11:19:27;;;;;;;4.38;2.65;;;;;;;;;;5073896;28;19920;-80
2023/07/31 11:21:53;;;;;;;4.68;2.75;;;;;;;;;;5087069;28;20040;-77
2023/07/31 11:24:19;;;;;;;4.93;3.20;;;;;;;;;;5045031;28;20044;-76
2023/07/31 11:26:53;;;;;;;7.38;3.22;;;;;;;;;;5075124;28;20044;-82
2023/07/31 11:29:19;;;;;;;4.40;2.97;;;;;;;;;;5074940;28;20098;-78
2023/07/31 11:31:46;;;;;;;4.28;2.67;;;;;;;;;;5075247;28;20056;-83
2023/07/31 11:34:12;;;;;;;3.63;2.22;;;;;;;;;;5094470;28;20078;-78
2023/07/31 11:36:38;;;;;;;;;;;;;;;;;;5069287;28;20052;-78
2023/07/31 11:39:11;;;;;;;3.50;2.40;;;;;;;;;;5064170;28;20014;-78
2023/07/31 11:41:40;;;;;;;4.60;2.90;;;;;;;;;;5073320;28;20039;-78
2023/07/31 11:44:07;;;;;;;3.63;2.50;;;;;;;;;;5074834;28;20081;-81
2023/07/31 11:46:32;;;;;;;;;;;;;;;;;;5090878;28;20047;-78
2023/07/31 11:49:02;;;;;;;4.25;2.60;;;;;;;;;;5082803;28;19920;-78
2023/07/31 11:51:32;;;;;;;4.70;2.70;;;;;;;;;;5066916;28;20138;-77
2023/07/31 11:54:00;;;;;;;5.45;2.72;;;;;;;;;;5068007;28;20054;-73
2023/07/31 11:56:26;;;;;;;5.00;3.30;;;;;;;;;;5084421;28;20185;-72
2023/07/31 11:58:59;;;;;;;6.43;3.20;;;;;;;;;;5073516;28;20048;-73
2023/07/31 12:01:27;;;;;;;15.27;3.38;;;;;;;;;;5074223;28;20043;-72
2023/07/31 12:03:54;;;;;;;11.18;3.50;;;;;;;;;;5073735;28;20401;-74
2023/07/31 12:06:22;;;;;;;27.17;3.55;;;;;;;;;;5073328;28;20477;-75
2023/07/31 12:08:49;;;;;;;26.15;2.92;;;;;;;;;;5079226;28;20035;-77
2023/07/31 12:11:15;;;;;;;20.45;3.28;;;;;;;;;;5076184;28;20570;-74
2023/07/31 12:13:41;;;;;;;8.93;3.22;;;;;;;;;;5051768;28;20493;-74
2023/07/31 12:16:07;;;;;;;;;;;;;;;;;;5078645;28;20075;-75
2023/07/31 12:18:37;;;;;;;9.07;2.40;;;;;;;;;;5066737;28;19991;-74
2023/07/31 12:21:05;;;;;;;8.82;3.55;;;;;;;;;;5068441;28;20044;-74
2023/07/31 12:23:33;;;;;;;7.47;3.67;;;;;;;;;;5087739;28;20047;-74
2023/07/31 12:26:05;;;;;;;7.28;3.72;;;;;;;;;;5067484;28;20052;-75
2023/07/31 12:28:35;;;;;;;9.57;4.72;;;;;;;;;;5060612;28;20049;-76
2023/07/31 12:31:02;;;;;;;11.50;5.55;;;;;;;;;;5073643;28;20033;-74
2023/07/31 12:33:34;;;;;;;13.20;6.43;;;;;;;;;;5076370;28;20111;-76
2023/07/31 12:36:01;;;;;;;12.68;6.47;;;;;;;;;;5076917;28;20035;-74
2023/07/31 12:38:28;;;;;;;12.35;6.53;;;;;;;;;;5077473;28;20109;-75
2023/07/31 12:40:53;;;;;;;;;;;;;;;;;;5069527;28;20048;-75
2023/07/31 12:43:20;;;;;;;16.83;7.60;;;;;;;;;;5070481;28;19956;-74
2023/07/31 12:45:47;;;;;;;;;;;17.80;99.90;;;;;;5074813;28;20490;-74
2023/07/31 12:48:13;;;;;;;25.60;9.40;;;17.90;99.90;;;;;;5069501;28;19931;-74
2023/07/31 12:50:38;;;;;;;;;;;17.90;99.90;;;;;;5059774;28;20527;-74
2023/07/31 12:53:05;;;;;;;23.23;8.15;;;;;;;;;;5075938;28;19924;-74
2023/07/31 12:55:31;;;;;;;13.80;4.63;;;17.90;99.90;;;;;;5066517;28;20105;-72
2023/07/31 12:57:56;;;;;;;;;;;17.80;99.90;;;;;;5085344;28;20118;-73
2023/07/31 13:00:22;;;;;;;7.70;3.35;;;17.70;99.90;;;;;;5074455;28;20412;-73
2023/07/31 13:02:48;;;;;;;;;;;17.70;99.90;;;;;;5075202;28;20180;-75
2023/07/31 13:05:14;;;;;;;9.38;4.20;;;17.80;99.90;;;;;;5076275;28;20380;-73
2023/07/31 13:07:40;;;;;;;;;;;17.90;99.90;;;;;;5079169;28;20079;-74
2023/07/31 13:10:07;;;;;;;9.35;4.13;;;17.90;99.90;;;;;;5074063;28;19920;-74
2023/07/31 13:12:32;;;;;;;19.75;5.18;;;18.00;99.90;;;;;;5073723;28;20040;-72
2023/07/31 13:14:59;;;;;;;10.93;5.40;;;18.00;99.90;;;;;;5072695;28;20052;-73
2023/07/31 13:17:25;;;;;;;;;;;18.00;99.90;;;;;;5086829;28;20107;-72
2023/07/31 13:19:51;;;;;;;16.08;6.75;;;18.00;99.90;;;;;;5088334;28;19924;-72
2023/07/31 13:22:16;;;;;;;;;;;17.90;99.90;;;;;;5056594;28;20052;-72
2023/07/31 13:24:42;;;;;;;15.20;7.82;;;18.00;99.90;;;;;;5078139;28;20284;-71
2023/07/31 13:27:07;;;;;;;;;;;18.00;99.90;;;;;;5081355;28;20098;-74
2023/07/31 13:29:33;;;;;;;14.52;7.43;;;18.00;99.90;;;;;;5069508;28;20407;-74
2023/07/31 13:31:59;;;;;;;;;;;18.10;99.90;;;;;;5070361;28;20056;-72
2023/07/31 13:34:24;;;;;;;17.38;8.70;;;18.20;99.90;;;;;;5069186;28;19996;-73
2023/07/31 13:36:50;;;;;;;;;;;18.20;99.90;;;;;;5070801;28;20052;-75
2023/07/31 13:39:16;;;;;;;15.00;8.00;;;18.20;99.90;;;;;;5085872;28;19919;-73
2023/07/31 13:41:41;;;;;;;;;;;18.20;99.90;;;;;;5061468;28;20135;-72
2023/07/31 13:44:07;;;;;;;16.77;7.75;;;18.10;99.90;;;;;;5082244;28;19935;-72
2023/07/31 13:46:32;;;;;;;;;;;18.00;99.90;;;;;;5069534;28;20497;-79
2023/07/31 13:48:59;;;;;;;15.90;7.35;;;17.90;99.90;;;;;;5069752;28;19947;-74
2023/07/31 13:51:25;;;;;;;13.55;7.28;;;17.90;99.90;;;;;;5074328;28;20045;-72
2023/07/31 13:53:51;;;;;;;17.45;5.90;;;17.80;99.90;;;;;;5067413;28;20052;-72
2023/07/31 13:56:17;;;;;;;;;;;17.80;99.90;;;;;;5077274;28;20040;-73
2023/07/31 13:58:42;;;;;;;13.68;7.00;;;17.90;99.90;;;;;;5072591;28;20536;-73
2023/07/31 14:01:08;;;;;;;;;;;17.80;99.90;;;;;;5084059;28;20123;-73
2023/07/31 14:03:34;;;;;;;48.05;10.55;;;17.70;99.90;;;;;;5080410;28;19925;-72
2023/07/31 14:06:00;;;;;;;;;;;17.80;99.90;;;;;;5077820;28;20048;-76
2023/07/31 14:08:25;;;;;;;17.50;9.30;;;17.90;99.90;;;;;;5075276;28;19927;-73
2023/07/31 14:10:51;;;;;;;;;;;17.90;99.90;;;;;;5071339;28;20076;-73
2023/07/31 14:13:16;;;;;;;17.23;9.40;;;17.90;99.90;;;;;;5078492;28;20021;-74
2023/07/31 14:15:43;;;;;;;;;;;18.00;99.90;;;;;;5073283;28;20497;-73
2023/07/31 14:18:09;;;;;;;12.77;6.88;;;18.10;99.90;;;;;;5070610;28;19967;-72
2023/07/31 14:20:35;;;;;;;13.27;6.50;;;18.10;99.90;;;;;;5073408;28;20106;-73
2023/07/31 14:23:02;;;;;;;;;;;18.20;99.90;;;;;;5058075;28;20150;-80
2023/07/31 14:25:27;;;;;;;13.73;6.13;;;18.10;99.90;;;;;;5058888;28;19931;-75
2023/07/31 14:27:53;;;;;;;;;;;18.00;99.90;;;;;;5057811;28;20041;-73
2023/07/31 14:30:19;;;;;;;11.48;6.40;;;18.00;99.90;;;;;;5079100;28;20435;-75
2023/07/31 14:32:45;;;;;;;12.65;6.70;;;18.00;99.90;;;;;;5054997;28;20485;-75
2023/07/31 14:35:11;;;;;;;;;;;18.10;99.90;;;;;;5073038;28;20048;-74
2023/07/31 14:37:41;;;;;;;11.25;6.63;;;18.20;99.90;;;;;;5067991;28;19920;-74
2023/07/31 14:40:09;;;;;;;14.30;6.50;;;18.40;99.90;;;;;;5072872;28;20052;-74
2023/07/31 14:42:35;;;;;;;13.18;5.93;;;18.50;99.90;;;;;;5057489;28;20053;-74
2023/07/31 14:45:02;;;;;;;11.07;5.72;;;18.50;99.90;;;;;;5063150;28;20044;-79
2023/07/31 14:47:28;;;;;;;11.93;5.68;;;18.50;99.90;;;;;;5047532;28;20051;-76
2023/07/31 14:49:53;;;;;;;;;;;18.30;99.90;;;;;;5042077;28;20052;-75